createdAt,value
2018-12-30T00:00:34.379Z,3.47
2018-12-30T00:03:04.104Z,2.70
2018-12-30T00:05:33.269Z,2.47
2018-12-30T00:08:03.268Z,2.40
2018-12-30T00:10:32.447Z,1.70
2018-12-30T00:13:01.636Z,1.80
2018-12-30T00:15:30.907Z,1.53
2018-12-30T00:17:59.996Z,1.03
2018-12-30T00:20:29.228Z,0.80
2018-12-30T00:22:58.425Z,0.60
2018-12-30T00:25:27.612Z,1.23
2018-12-30T00:27:57.311Z,0.50
2018-12-30T00:30:26.527Z,0.47
2018-12-30T00:33:00.938Z,1.03
2018-12-30T00:35:30.843Z,1.13
2018-12-30T00:38:00.127Z,0.50
2018-12-30T00:40:29.432Z,4.47
2018-12-30T00:42:58.725Z,1.27
2018-12-30T00:45:27.956Z,0.63
2018-12-30T00:47:57.139Z,1.80
2018-12-30T00:50:26.427Z,0.50
2018-12-30T00:52:56.148Z,0.47
2018-12-30T00:55:25.236Z,0.60
2018-12-30T00:57:54.338Z,0.70
2018-12-30T01:00:23.432Z,0.50
2018-12-30T01:02:52.523Z,0.60
2018-12-30T01:05:21.719Z,0.60
2018-12-30T01:07:50.895Z,0.93
2018-12-30T01:10:20.022Z,0.50
2018-12-30T01:12:49.151Z,0.60
2018-12-30T01:15:19.412Z,0.87
2018-12-30T01:17:48.573Z,0.30
2018-12-30T01:20:17.769Z,0.20
2018-12-30T01:22:46.838Z,0.20
2018-12-30T01:25:15.961Z,0.30
2018-12-30T01:27:45.159Z,0.30
2018-12-30T01:30:14.347Z,0.30
2018-12-30T01:32:43.549Z,0.53
2018-12-30T01:35:12.762Z,0.37
2018-12-30T01:37:42.295Z,0.50
2018-12-30T01:40:11.422Z,0.60
2018-12-30T01:42:41.188Z,0.73
2018-12-30T01:45:10.439Z,0.90
2018-12-30T01:47:39.634Z,0.70
2018-12-30T01:50:08.847Z,0.50
2018-12-30T01:52:38.817Z,0.60
2018-12-30T01:55:07.947Z,0.67
2018-12-30T01:57:37.111Z,0.83
2018-12-30T02:00:06.647Z,0.70
2018-12-30T02:02:35.912Z,0.40
2018-12-30T02:05:05.219Z,0.70
2018-12-30T02:07:34.803Z,0.77
2018-12-30T02:10:04.327Z,0.53
2018-12-30T02:12:33.465Z,0.60
2018-12-30T02:15:02.890Z,0.90
2018-12-30T02:17:32.687Z,1.00
2018-12-30T02:20:01.733Z,1.53
2018-12-30T02:22:30.946Z,1.90
2018-12-30T02:25:00.165Z,2.30
2018-12-30T02:27:29.341Z,2.00
2018-12-30T02:29:58.473Z,2.73
2018-12-30T02:32:27.652Z,2.10
2018-12-30T02:34:56.813Z,1.33
2018-12-30T02:37:27.172Z,1.27
2018-12-30T02:39:56.292Z,0.93
2018-12-30T02:42:26.355Z,1.00
2018-12-30T02:44:55.479Z,1.27
2018-12-30T02:47:24.602Z,0.70
2018-12-30T02:49:53.680Z,0.50
2018-12-30T02:52:22.760Z,1.60
2018-12-30T02:54:51.973Z,0.80
2018-12-30T02:57:21.071Z,0.47
2018-12-30T02:59:54.556Z,0.60
2018-12-30T03:02:23.763Z,0.57
2018-12-30T03:04:52.921Z,0.70
2018-12-30T03:07:21.944Z,0.43
2018-12-30T03:09:51.088Z,0.40
2018-12-30T03:12:20.247Z,0.40
2018-12-30T03:14:49.348Z,0.53
2018-12-30T03:17:19.326Z,0.50
2018-12-30T03:19:48.486Z,0.30
2018-12-30T03:22:17.595Z,0.60
2018-12-30T03:24:46.762Z,0.77
2018-12-30T03:27:15.839Z,0.73
2018-12-30T03:29:45.045Z,1.00
2018-12-30T03:32:14.139Z,0.93
2018-12-30T03:34:43.198Z,1.60
2018-12-30T03:37:12.443Z,1.43
2018-12-30T03:39:41.635Z,1.57
2018-12-30T03:42:10.711Z,2.03
2018-12-30T03:44:40.029Z,2.13
2018-12-30T03:47:09.290Z,1.83
2018-12-30T03:49:38.457Z,2.27
2018-12-30T03:52:08.617Z,1.63
2018-12-30T03:54:37.046Z,1.40
2018-12-30T03:57:06.181Z,1.20
2018-12-30T03:59:35.301Z,1.00
2018-12-30T04:02:04.400Z,0.90
2018-12-30T04:04:33.478Z,0.93
2018-12-30T04:07:02.996Z,1.07
2018-12-30T04:09:32.069Z,0.63
2018-12-30T04:12:01.197Z,0.87
2018-12-30T04:14:30.978Z,0.87
2018-12-30T04:17:00.057Z,0.60
2018-12-30T04:19:29.128Z,0.40
2018-12-30T04:21:58.303Z,0.33
2018-12-30T04:24:27.391Z,0.20
2018-12-30T04:26:57.294Z,0.20
2018-12-30T04:29:26.546Z,0.20
2018-12-30T04:31:56.973Z,0.20
2018-12-30T04:34:27.807Z,0.10
2018-12-30T05:06:03.743Z,1.90
2018-12-30T05:08:32.894Z,1.87
2018-12-30T05:11:02.049Z,2.07
2018-12-30T05:13:31.300Z,1.60
2018-12-30T05:16:00.507Z,2.20
2018-12-30T05:18:29.711Z,2.13
2018-12-30T05:20:59.206Z,2.07
2018-12-30T05:23:28.376Z,1.60
2018-12-30T05:25:57.497Z,2.43
2018-12-30T05:28:26.599Z,2.03
2018-12-30T05:30:55.691Z,2.43
2018-12-30T05:33:24.846Z,1.53
2018-12-30T05:35:54.095Z,1.20
2018-12-30T05:38:23.281Z,1.00
2018-12-30T05:40:53.092Z,1.00
2018-12-30T05:43:22.189Z,0.70
2018-12-30T05:45:51.400Z,0.90
2018-12-30T05:48:20.515Z,1.10
2018-12-30T05:50:50.957Z,1.10
2018-12-30T05:53:20.623Z,1.53
2018-12-30T05:55:56.374Z,1.73
2018-12-30T05:58:25.472Z,1.83
2018-12-30T06:00:54.572Z,1.50
2018-12-30T06:03:23.910Z,1.00
2018-12-30T06:05:53.087Z,0.90
2018-12-30T06:08:22.398Z,1.10
2018-12-30T06:10:51.564Z,1.10
2018-12-30T06:13:20.629Z,1.20
2018-12-30T06:15:49.662Z,0.67
2018-12-30T06:18:18.726Z,0.60
2018-12-30T06:20:47.894Z,0.73
2018-12-30T06:23:16.972Z,0.60
2018-12-30T06:25:46.022Z,0.90
2018-12-30T06:28:15.132Z,0.70
2018-12-30T06:30:44.227Z,4.33
2018-12-30T06:33:13.339Z,1.50
2018-12-30T06:35:42.505Z,1.07
2018-12-30T06:38:11.648Z,1.30
2018-12-30T06:40:40.805Z,1.40
2018-12-30T06:43:09.921Z,1.23
2018-12-30T06:45:39.256Z,1.03
2018-12-30T06:48:08.513Z,1.23
2018-12-30T06:50:37.561Z,1.00
2018-12-30T06:53:06.655Z,1.77
2018-12-30T06:55:37.037Z,1.37
2018-12-30T06:58:06.240Z,1.60
2018-12-30T07:00:35.614Z,1.10
2018-12-30T07:03:04.664Z,1.00
2018-12-30T07:05:33.823Z,0.87
2018-12-30T07:08:03.055Z,0.90
2018-12-30T07:10:32.296Z,0.90
2018-12-30T07:13:01.883Z,0.90
2018-12-30T07:15:31.958Z,1.37
2018-12-30T07:18:01.055Z,0.70
2018-12-30T07:20:30.130Z,1.10
2018-12-30T07:23:05.724Z,5.23
2018-12-30T07:25:28.716Z,3.30
2018-12-30T07:27:57.851Z,1.20
2018-12-30T07:30:26.988Z,0.80
2018-12-30T07:32:56.157Z,1.30
2018-12-30T07:35:25.219Z,0.80
2018-12-30T07:37:54.233Z,1.03
2018-12-30T07:40:23.412Z,1.10
2018-12-30T07:42:52.484Z,1.60
2018-12-30T07:45:21.659Z,0.70
2018-12-30T07:47:50.823Z,0.80
2018-12-30T07:50:19.919Z,0.80
2018-12-30T07:52:48.979Z,1.00
2018-12-30T07:55:18.043Z,0.67
2018-12-30T07:57:47.124Z,0.40
2018-12-30T08:00:16.307Z,0.90
2018-12-30T08:02:45.522Z,1.10
2018-12-30T08:05:14.572Z,1.27
2018-12-30T08:07:43.773Z,1.50
2018-12-30T08:10:12.898Z,1.10
2018-12-30T08:12:42.036Z,1.13
2018-12-30T08:15:11.133Z,0.93
2018-12-30T08:17:42.072Z,1.73
2018-12-30T08:20:13.482Z,1.00
2018-12-30T08:22:43.252Z,0.90
2018-12-30T08:25:12.474Z,1.67
2018-12-30T08:27:41.545Z,1.10
2018-12-30T08:30:10.689Z,1.70
2018-12-30T08:32:39.801Z,1.00
2018-12-30T08:35:09.109Z,2.00
2018-12-30T08:37:38.361Z,1.60
2018-12-30T08:40:08.153Z,2.50
2018-12-30T08:42:37.294Z,0.90
2018-12-30T08:45:06.749Z,0.90
2018-12-30T08:47:36.722Z,1.30
2018-12-30T08:50:06.914Z,1.37
2018-12-30T08:52:36.062Z,1.10
2018-12-30T08:55:05.180Z,1.20
2018-12-30T08:57:34.368Z,1.47
2018-12-30T09:00:03.652Z,1.00
2018-12-30T09:02:32.776Z,4.07
2018-12-30T09:05:02.294Z,2.30
2018-12-30T09:07:34.244Z,2.20
2018-12-30T09:10:03.545Z,2.07
2018-12-30T09:12:32.672Z,2.40
2018-12-30T09:15:02.856Z,2.47
2018-12-30T09:17:31.950Z,2.17
2018-12-30T09:20:01.116Z,1.90
2018-12-30T09:22:30.252Z,1.47
2018-12-30T09:24:59.332Z,1.80
2018-12-30T09:27:28.564Z,1.47
2018-12-30T09:29:57.653Z,2.53
2018-12-30T09:32:27.045Z,2.50
2018-12-30T09:34:56.236Z,1.47
2018-12-30T09:37:25.622Z,2.00
2018-12-30T09:39:54.740Z,2.47
2018-12-30T09:42:23.930Z,1.90
2018-12-30T09:44:53.529Z,1.90
2018-12-30T09:47:22.744Z,1.60
2018-12-30T09:49:51.945Z,1.00
2018-12-30T09:52:21.136Z,2.70
2018-12-30T09:54:51.340Z,1.70
2018-12-30T09:57:20.808Z,1.80
2018-12-30T10:00:06.905Z,1.20
2018-12-30T10:02:53.867Z,1.77
2018-12-30T10:05:36.711Z,1.83
2018-12-30T10:08:05.908Z,1.40
2018-12-30T10:10:36.012Z,1.87
2018-12-30T10:13:05.383Z,1.77
2018-12-30T10:15:35.629Z,2.10
2018-12-30T10:18:04.832Z,4.20
2018-12-30T10:20:34.013Z,2.23
2018-12-30T10:26:06.838Z,1.40
2018-12-30T10:28:37.482Z,2.00
2018-12-30T10:31:12.028Z,2.20
2018-12-30T10:33:41.219Z,1.20
2018-12-30T10:36:10.360Z,1.40
2018-12-30T10:38:39.470Z,1.50
2018-12-30T10:41:08.782Z,2.10
2018-12-30T10:43:37.959Z,1.77
2018-12-30T10:46:07.312Z,1.70
2018-12-30T10:48:36.479Z,1.20
2018-12-30T10:51:05.845Z,1.00
2018-12-30T10:53:35.075Z,0.80
2018-12-30T10:56:04.574Z,3.10
2018-12-30T10:58:33.825Z,1.37
2018-12-30T11:01:03.252Z,1.17
2018-12-30T11:03:32.539Z,0.93
2018-12-30T11:06:01.757Z,1.10
2018-12-30T11:08:31.076Z,1.60
2018-12-30T11:11:00.327Z,2.10
2018-12-30T11:13:30.305Z,1.90
2018-12-30T11:16:00.315Z,2.17
2018-12-30T11:18:29.917Z,1.40
2018-12-30T11:20:59.276Z,2.10
2018-12-30T11:23:28.544Z,2.13
2018-12-30T11:25:57.829Z,1.53
2018-12-30T11:28:27.144Z,1.83
2018-12-30T11:30:56.342Z,1.30
2018-12-30T11:33:25.827Z,1.37
2018-12-30T11:35:54.924Z,0.90
2018-12-30T11:38:25.834Z,1.07
2018-12-30T11:40:56.308Z,1.40
2018-12-30T11:43:25.486Z,0.90
2018-12-30T11:45:54.788Z,0.67
2018-12-30T11:48:23.964Z,0.80
2018-12-30T11:50:53.934Z,0.70
2018-12-30T11:53:23.415Z,1.33
2018-12-30T11:55:52.593Z,0.80
2018-12-30T11:58:21.664Z,1.37
2018-12-30T12:00:51.579Z,0.93
2018-12-30T12:03:20.921Z,0.97
2018-12-30T12:05:50.124Z,0.60
2018-12-30T12:08:20.580Z,0.90
2018-12-30T12:10:50.766Z,1.83
2018-12-30T12:13:26.770Z,0.90
2018-12-30T12:15:56.707Z,0.97
2018-12-30T12:18:33.756Z,0.87
2018-12-30T12:21:02.963Z,1.77
2018-12-30T12:23:32.136Z,0.70
2018-12-30T12:26:01.425Z,19.17
2018-12-30T12:28:30.556Z,6.07
2018-12-30T12:30:59.995Z,1.63
2018-12-30T12:33:29.738Z,1.30
2018-12-30T12:35:58.988Z,2.40
2018-12-30T12:38:28.297Z,2.30
2018-12-30T12:40:57.450Z,3.10
2018-12-30T12:43:26.973Z,2.13
2018-12-30T12:45:56.460Z,1.97
2018-12-30T12:48:25.732Z,2.30
2018-12-30T12:50:55.927Z,2.00
2018-12-30T12:53:25.115Z,1.60
2018-12-30T12:55:54.420Z,1.83
2018-12-30T12:58:23.588Z,1.97
2018-12-30T13:00:53.431Z,2.57
2018-12-30T13:03:22.832Z,2.37
2018-12-30T13:05:58.714Z,1.70
2018-12-30T13:08:28.082Z,1.23
2018-12-30T13:10:59.515Z,1.17
2018-12-30T13:13:29.395Z,1.13
2018-12-30T13:16:03.363Z,0.60
2018-12-30T13:18:27.813Z,1.30
2018-12-30T13:20:59.370Z,0.97
2018-12-30T13:23:28.549Z,0.70
2018-12-30T13:25:58.339Z,0.30
2018-12-30T13:28:29.293Z,0.20
2018-12-30T13:30:58.577Z,0.40
2018-12-30T13:33:28.034Z,0.20
2018-12-30T13:35:57.389Z,0.10
2018-12-30T13:38:28.405Z,0.40
2018-12-30T13:40:56.035Z,0.50
2018-12-30T13:43:25.186Z,0.40
2018-12-30T13:45:55.298Z,1.40
2018-12-30T13:48:24.382Z,1.83
2018-12-30T13:50:53.617Z,1.00
2018-12-30T13:53:22.979Z,0.40
2018-12-30T13:55:52.063Z,0.30
2018-12-30T13:58:21.220Z,1.90
2018-12-30T14:00:50.451Z,0.70
2018-12-30T14:03:19.544Z,0.80
2018-12-30T14:05:48.659Z,0.60
2018-12-30T14:08:17.879Z,0.77
2018-12-30T14:10:47.258Z,0.40
2018-12-30T14:13:21.477Z,1.80
2018-12-30T14:15:51.124Z,1.07
2018-12-30T14:18:19.963Z,0.60
2018-12-30T14:20:49.483Z,0.43
2018-12-30T14:23:18.708Z,1.20
2018-12-30T14:25:47.772Z,4.20
2018-12-30T14:28:17.165Z,0.60
2018-12-30T14:30:46.406Z,0.37
2018-12-30T14:33:15.466Z,0.40
2018-12-30T14:35:44.655Z,0.50
2018-12-30T14:38:13.971Z,0.20
2018-12-30T14:40:43.215Z,0.70
2018-12-30T14:43:12.389Z,0.40
2018-12-30T14:45:41.591Z,0.67
2018-12-30T14:48:11.189Z,0.50
2018-12-30T14:50:40.458Z,0.50
2018-12-30T14:53:18.848Z,3.90
2018-12-30T14:55:40.036Z,0.33
2018-12-30T14:58:09.253Z,0.77
2018-12-30T15:00:38.930Z,0.30
2018-12-30T15:03:08.202Z,0.20
2018-12-30T15:05:37.297Z,0.30
2018-12-30T15:08:06.484Z,0.97
2018-12-30T15:10:35.627Z,0.60
2018-12-30T15:13:05.982Z,0.20
2018-12-30T15:15:35.280Z,0.30
2018-12-30T15:18:04.532Z,0.20
2018-12-30T15:20:33.853Z,0.60
2018-12-30T15:23:03.018Z,0.87
2018-12-30T15:25:32.157Z,1.43
2018-12-30T15:28:01.407Z,0.37
2018-12-30T15:30:30.703Z,0.50
2018-12-30T15:32:59.942Z,0.50
2018-12-30T15:35:29.240Z,0.57
2018-12-30T15:37:58.370Z,1.10
2018-12-30T15:40:27.790Z,0.70
2018-12-30T15:42:56.930Z,4.13
2018-12-30T15:45:26.271Z,0.33
2018-12-30T15:47:55.542Z,0.30
2018-12-30T15:50:24.704Z,0.40
2018-12-30T15:52:53.882Z,0.47
2018-12-30T15:55:23.052Z,0.50
2018-12-30T15:57:52.249Z,0.63
2018-12-30T16:00:22.333Z,0.43
2018-12-30T16:25:52.616Z,3.73
2018-12-30T16:28:23.553Z,2.10
2018-12-30T16:30:53.356Z,2.93
2018-12-30T16:33:22.770Z,2.70
2018-12-30T16:35:51.976Z,4.73
2018-12-30T16:38:21.104Z,3.77
2018-12-30T16:40:50.443Z,1.80
2018-12-30T16:43:19.601Z,0.90
2018-12-30T16:45:48.795Z,0.87
2018-12-30T16:48:17.958Z,1.00
2018-12-30T16:50:47.007Z,0.87
2018-12-30T16:53:16.429Z,0.40
2018-12-30T16:55:45.755Z,0.40
2018-12-30T16:58:14.841Z,0.67
2018-12-30T17:00:44.022Z,0.57
2018-12-30T17:03:13.311Z,0.70
2018-12-30T17:05:42.523Z,0.80
2018-12-30T17:08:11.777Z,0.57
2018-12-30T17:10:40.925Z,0.67
2018-12-30T17:13:10.097Z,0.50
2018-12-30T17:15:39.298Z,1.77
2018-12-30T17:18:08.572Z,0.60
2018-12-30T17:20:37.633Z,0.63
2018-12-30T17:23:06.844Z,0.60
2018-12-30T17:25:42.838Z,0.43
2018-12-30T17:28:05.529Z,1.40
2018-12-30T17:30:37.595Z,3.30
2018-12-30T17:33:06.873Z,3.67
2018-12-30T17:35:36.548Z,3.43
2018-12-30T17:38:05.797Z,5.13
2018-12-30T17:40:38.630Z,1.17
2018-12-30T17:43:04.055Z,2.00
2018-12-30T17:45:33.220Z,0.30
2018-12-30T17:48:02.261Z,0.60
2018-12-30T17:50:31.386Z,1.77
2018-12-30T17:53:01.197Z,1.93
2018-12-30T17:55:30.972Z,2.83
2018-12-30T17:58:00.186Z,3.70
2018-12-30T18:00:29.278Z,5.30
2018-12-30T18:02:58.417Z,6.63
2018-12-30T18:05:27.546Z,5.00
2018-12-30T18:07:56.733Z,2.80
2018-12-30T18:10:26.649Z,3.07
2018-12-30T18:12:55.802Z,3.37
2018-12-30T18:15:24.961Z,3.10
2018-12-30T18:17:54.402Z,3.37
2018-12-30T18:20:24.176Z,4.03
2018-12-30T18:22:53.635Z,3.50
2018-12-30T18:25:22.987Z,3.03
2018-12-30T18:27:52.079Z,2.97
2018-12-30T18:30:21.175Z,5.17
2018-12-30T18:32:50.282Z,8.07
2018-12-30T18:35:19.306Z,8.63
2018-12-30T18:37:48.522Z,9.57
2018-12-30T18:40:17.616Z,6.60
2018-12-30T18:42:46.831Z,5.87
2018-12-30T18:45:16.033Z,4.30
2018-12-30T18:47:45.025Z,3.87
2018-12-30T18:50:14.123Z,3.17
2018-12-30T18:52:43.534Z,2.90
2018-12-30T18:55:12.701Z,3.13
2018-12-30T18:57:42.722Z,2.90
2018-12-30T19:00:12.243Z,3.67
2018-12-30T19:02:42.688Z,5.00
2018-12-30T19:05:11.798Z,6.37
2018-12-30T19:07:40.954Z,4.13
2018-12-30T19:10:10.181Z,3.20
2018-12-30T19:12:39.307Z,3.90
2018-12-30T19:15:09.414Z,5.67
2018-12-30T19:17:38.537Z,6.77
2018-12-30T19:20:07.709Z,4.80
2018-12-30T19:22:36.825Z,4.73
2018-12-30T19:25:08.052Z,4.30
2018-12-30T19:27:37.518Z,4.90
2018-12-30T19:30:15.454Z,5.17
2018-12-30T19:32:45.094Z,4.80
2018-12-30T19:35:19.040Z,4.40
2018-12-30T19:37:50.630Z,4.90
2018-12-30T19:40:21.062Z,5.50
2018-12-30T19:42:51.444Z,6.40
2018-12-30T19:45:20.578Z,6.93
2018-12-30T19:47:49.867Z,7.37
2018-12-30T19:50:19.378Z,8.07
2018-12-30T19:52:53.067Z,8.93
2018-12-30T19:55:22.730Z,10.73
2018-12-30T19:57:51.980Z,9.97
2018-12-30T20:00:21.043Z,8.77
2018-12-30T20:02:50.427Z,8.23
2018-12-30T20:05:19.598Z,7.70
2018-12-30T20:07:48.820Z,7.63
2018-12-30T20:10:17.967Z,5.97
2018-12-30T20:12:47.088Z,5.20
2018-12-30T20:15:16.221Z,3.90
2018-12-30T20:17:45.367Z,2.50
2018-12-30T20:20:14.483Z,3.00
2018-12-30T20:22:43.699Z,1.43
2018-12-30T20:25:12.901Z,1.27
2018-12-30T20:27:42.071Z,1.80
2018-12-30T20:30:11.499Z,1.30
2018-12-30T20:32:40.723Z,2.20
2018-12-30T20:35:09.841Z,2.20
2018-12-30T20:37:38.988Z,1.40
2018-12-30T20:40:08.287Z,2.17
2018-12-30T20:42:37.526Z,1.83
2018-12-30T20:45:06.902Z,1.80
2018-12-30T20:47:36.031Z,2.37
2018-12-30T20:50:06.457Z,3.30
2018-12-30T20:52:35.756Z,3.37
2018-12-30T20:55:05.555Z,3.10
2018-12-30T20:57:34.645Z,2.60
2018-12-30T21:00:03.862Z,2.40
2018-12-30T21:02:32.908Z,1.97
2018-12-30T21:05:02.000Z,1.20
2018-12-30T21:07:31.094Z,1.10
2018-12-30T21:10:00.223Z,0.70
2018-12-30T21:12:29.339Z,1.00
2018-12-30T21:14:58.583Z,1.23
2018-12-30T21:17:28.056Z,0.77
2018-12-30T21:19:57.184Z,1.97
2018-12-30T21:22:27.010Z,1.70
2018-12-30T21:24:56.119Z,1.93
2018-12-30T21:27:25.211Z,1.93
2018-12-30T21:29:54.288Z,1.30
2018-12-30T21:32:23.472Z,1.80
2018-12-30T21:34:52.512Z,1.10
2018-12-30T21:37:21.581Z,1.60
2018-12-30T21:39:51.969Z,1.87
2018-12-30T21:42:21.068Z,1.50
2018-12-30T22:16:43.499Z,3.03
2018-12-30T22:19:12.799Z,5.03
2018-12-30T22:21:41.966Z,3.37
2018-12-30T22:24:11.160Z,2.80
2018-12-30T22:26:40.271Z,2.80
2018-12-30T22:29:09.584Z,2.37
2018-12-30T22:31:38.663Z,2.43
2018-12-30T22:34:13.961Z,1.40
2018-12-30T22:36:43.159Z,1.63
2018-12-30T22:39:12.195Z,1.20
2018-12-30T22:41:41.524Z,1.20
2018-12-30T22:44:10.716Z,1.20
2018-12-30T22:46:39.868Z,1.37
2018-12-30T22:49:08.943Z,1.87
2018-12-30T22:51:38.311Z,2.83
2018-12-30T22:54:07.502Z,3.20
2018-12-30T22:56:36.586Z,3.00
2018-12-30T22:59:05.699Z,5.07
2018-12-30T23:01:39.077Z,4.10
2018-12-30T23:04:08.121Z,2.30
2018-12-30T23:06:37.171Z,1.83
2018-12-30T23:09:08.079Z,1.67
2018-12-30T23:11:37.206Z,1.70
2018-12-30T23:14:06.323Z,1.40
2018-12-30T23:16:35.383Z,1.67
2018-12-30T23:19:04.520Z,2.07
2018-12-30T23:21:33.712Z,1.87
2018-12-30T23:24:02.831Z,2.13
2018-12-30T23:26:31.929Z,2.80
2018-12-30T23:29:01.092Z,3.00
2018-12-30T23:31:30.194Z,3.10
2018-12-30T23:33:59.315Z,3.43
2018-12-30T23:36:28.424Z,3.67
2018-12-30T23:38:57.452Z,4.63
2018-12-30T23:41:26.587Z,3.70
2018-12-30T23:43:55.664Z,3.80
2018-12-30T23:46:24.985Z,2.90
2018-12-30T23:48:54.247Z,3.50
2018-12-30T23:51:23.347Z,2.90
2018-12-30T23:53:52.363Z,2.60
2018-12-30T23:56:21.451Z,2.70
2018-12-30T23:58:51.436Z,2.27
